Skip Navigation Links
NOAA logo - Click to go to the NOAA homepage
NOAA's National Weather Service
Alaska Aviation Weather Unit
  NWS logo - Click to go to the NWS homepage
Left Navbar Graphic     02 AKDT = 10 GMT

   
NOAA is celebrating 200 years of science, service, and stewardship. Visit the NOAA 200th celebration Web site to learn more.
USA.gov is the U.S. Government's official Web portal to all Federal, state and local government Web resources and services.
Facebook
NWS on Facebook

AAWU Home :: Display TAF Add Bookmark
METAR PANV 270416Z AUTO 03011KT 10SM CLR M05/M17 A2978 RMK AO1=

PANV 270436Z AUTO 02010KT 10SM CLR M06/M17 A2977 RMK AO1=

METAR PANV 270456Z AUTO 02012G15KT 10SM CLR M06/M18 A2977 RMK AO1=

METAR PANV 270516Z AUTO 03012G18KT 10SM CLR M06/M18 A2977 RMK AO1=

METAR PANV 270536Z AUTO 03010G15KT 10SM CLR M07/M18 A2977 RMK AO1=

METAR PANV 270556Z AUTO 02011KT 10SM CLR M07/M18 A2977 RMK AO1 11040
     21070 57003=

METAR PANV 270616Z AUTO 03011G15KT 10SM CLR M07/M18 A2977 RMK AO1=

METAR PANV 270636Z AUTO 03011KT 10SM CLR M07/M19 A2977 RMK AO1=

METAR PANV 270656Z AUTO 02013G17KT 10SM CLR M07/M18 A2976 RMK AO1=

METAR PANV 270716Z AUTO 02013G17KT 10SM CLR M08/M18 A2976 RMK AO1=

METAR PANV 270736Z AUTO 02013G19KT 10SM CLR M08/M19 A2976 RMK AO1=

METAR PANV 270756Z AUTO 02010KT 10SM CLR M08/M19 A2976 RMK AO1=

METAR PANV 270816Z AUTO 03011G16KT 10SM CLR M09/M19 A2976 RMK AO1=

METAR PANV 270836Z AUTO 02011G16KT 10SM CLR M09/M19 A2976 RMK AO1=

METAR PANV 270856Z AUTO 03011G15KT 10SM CLR M09/M19 A2976 RMK AO1
     57003=

METAR PANV 270916Z AUTO 02012G17KT 10SM CLR M09/M19 A2975 RMK AO1=

METAR PANV 270936Z AUTO 02011KT 10SM CLR M10/M19 A2975 RMK AO1=

METAR PANV 270956Z AUTO 02011G14KT 10SM CLR M10/M19 A2975 RMK AO1=

METAR PANV 271016Z AUTO 02010KT 10SM CLR M11/M19 A2975 RMK AO1=

METAR PANV 271036Z AUTO 02010KT 10SM CLR M11/M19 A2975 RMK AO1=


NOAA's National Weather Service
Alaska Aviation Weather Unit
6930 Sand Lake Road
Anchorage, AK 99502-1845
Disclaimer
Credits
Glossary
Privacy Policy
About Us
Career Opportunities
Contact AAWU Internet Services Site last modified: April, 17th 2012